Terminal Aerodrome Forecast
Issued by NWS Caribou, ME

Home | Current Version | Previous Version | Text Only | Print | Product List | Glossary On
Versions: 1 2 3 4 5 6 7 8 9 10 11 12 13 14 15 16 17
475
FTUS41 KCAR 251120
TAFBGR
TAF
KBGR 251120Z 2512/2612 10007KT P6SM BKN250
     FM252000 11011KT P6SM VCSH OVC035
     FM260200 08010KT 3SM -RA OVC015
     FM260900 05016KT 4SM -RA BR OVC007=

USA.gov is the U.S. government's official web portal to all federal, state and local government web resources and services.